sensor_id;sensor_type;location;lat;lon;timestamp;P1;durP1;ratioP1;P2;durP2;ratioP2
12122;SDS011;6125;59.628;17.852;2022-10-16T00:01:48;24.30;;;16.70;;
12122;SDS011;6125;59.628;17.852;2022-10-16T00:04:20;24.57;;;15.47;;
12122;SDS011;6125;59.628;17.852;2022-10-16T00:06:48;26.53;;;15.80;;
12122;SDS011;6125;59.628;17.852;2022-10-16T00:09:19;30.50;;;15.90;;
12122;SDS011;6125;59.628;17.852;2022-10-16T00:11:47;24.57;;;15.97;;
12122;SDS011;6125;59.628;17.852;2022-10-16T00:14:23;20.80;;;15.00;;
12122;SDS011;6125;59.628;17.852;2022-10-16T00:16:50;19.83;;;14.33;;
12122;SDS011;6125;59.628;17.852;2022-10-16T00:19:17;20.23;;;14.47;;
12122;SDS011;6125;59.628;17.852;2022-10-16T00:21:43;21.07;;;13.93;;
12122;SDS011;6125;59.628;17.852;2022-10-16T00:24:13;20.97;;;13.53;;
12122;SDS011;6125;59.628;17.852;2022-10-16T00:26:43;19.03;;;13.63;;
12122;SDS011;6125;59.628;17.852;2022-10-16T00:29:10;18.63;;;13.07;;
12122;SDS011;6125;59.628;17.852;2022-10-16T00:31:37;22.53;;;13.67;;
12122;SDS011;6125;59.628;17.852;2022-10-16T00:34:06;21.60;;;13.53;;
12122;SDS011;6125;59.628;17.852;2022-10-16T00:36:36;19.33;;;12.43;;
12122;SDS011;6125;59.628;17.852;2022-10-16T00:39:06;18.83;;;12.97;;
12122;SDS011;6125;59.628;17.852;2022-10-16T00:41:37;18.67;;;12.97;;
12122;SDS011;6125;59.628;17.852;2022-10-16T00:47:04;20.00;;;13.20;;
12122;SDS011;6125;59.628;17.852;2022-10-16T00:49:34;19.80;;;13.37;;
12122;SDS011;6125;59.628;17.852;2022-10-16T00:52:01;21.67;;;13.13;;
12122;SDS011;6125;59.628;17.852;2022-10-16T00:54:29;19.40;;;13.37;;
12122;SDS011;6125;59.628;17.852;2022-10-16T00:57:01;18.77;;;13.30;;
12122;SDS011;6125;59.628;17.852;2022-10-16T00:59:32;18.17;;;12.40;;
12122;SDS011;6125;59.628;17.852;2022-10-16T01:02:01;18.67;;;12.27;;
12122;SDS011;6125;59.628;17.852;2022-10-16T01:04:30;19.60;;;13.23;;
12122;SDS011;6125;59.628;17.852;2022-10-16T01:07:06;20.20;;;11.60;;
12122;SDS011;6125;59.628;17.852;2022-10-16T01:09:41;18.23;;;12.07;;
12122;SDS011;6125;59.628;17.852;2022-10-16T01:12:22;16.63;;;11.60;;
12122;SDS011;6125;59.628;17.852;2022-10-16T01:14:56;17.40;;;11.77;;
12122;SDS011;6125;59.628;17.852;2022-10-16T01:17:35;15.53;;;11.43;;
12122;SDS011;6125;59.628;17.852;2022-10-16T01:20:10;17.00;;;12.27;;
12122;SDS011;6125;59.628;17.852;2022-10-16T01:22:47;18.30;;;11.20;;
12122;SDS011;6125;59.628;17.852;2022-10-16T01:25:36;15.17;;;11.37;;
12122;SDS011;6125;59.628;17.852;2022-10-16T01:28:16;15.50;;;11.07;;
12122;SDS011;6125;59.628;17.852;2022-10-16T01:30:48;16.07;;;10.20;;
12122;SDS011;6125;59.628;17.852;2022-10-16T01:33:26;14.27;;;10.47;;
12122;SDS011;6125;59.628;17.852;2022-10-16T01:35:59;17.57;;;11.37;;
12122;SDS011;6125;59.628;17.852;2022-10-16T01:38:36;15.23;;;11.00;;
12122;SDS011;6125;59.628;17.852;2022-10-16T01:41:06;15.00;;;11.17;;
12122;SDS011;6125;59.628;17.852;2022-10-16T01:43:39;14.27;;;10.73;;
12122;SDS011;6125;59.628;17.852;2022-10-16T01:46:10;14.83;;;11.37;;
12122;SDS011;6125;59.628;17.852;2022-10-16T01:48:44;15.87;;;11.53;;
12122;SDS011;6125;59.628;17.852;2022-10-16T01:51:12;17.23;;;11.27;;
12122;SDS011;6125;59.628;17.852;2022-10-16T01:53:41;13.60;;;10.10;;
12122;SDS011;6125;59.628;17.852;2022-10-16T01:56:12;14.30;;;10.70;;
12122;SDS011;6125;59.628;17.852;2022-10-16T01:58:46;13.50;;;10.07;;
12122;SDS011;6125;59.628;17.852;2022-10-16T02:01:17;14.17;;;11.20;;
12122;SDS011;6125;59.628;17.852;2022-10-16T02:03:46;13.43;;;10.70;;
12122;SDS011;6125;59.628;17.852;2022-10-16T02:06:17;14.37;;;10.03;;
12122;SDS011;6125;59.628;17.852;2022-10-16T02:08:45;15.33;;;11.43;;
12122;SDS011;6125;59.628;17.852;2022-10-16T02:11:13;13.87;;;10.63;;
12122;SDS011;6125;59.628;17.852;2022-10-16T02:13:41;15.10;;;10.43;;
12122;SDS011;6125;59.628;17.852;2022-10-16T02:16:17;12.93;;;10.40;;
12122;SDS011;6125;59.628;17.852;2022-10-16T02:18:49;20.20;;;10.87;;
12122;SDS011;6125;59.628;17.852;2022-10-16T02:21:16;14.27;;;10.53;;
12122;SDS011;6125;59.628;17.852;2022-10-16T02:23:54;14.47;;;10.43;;
12122;SDS011;6125;59.628;17.852;2022-10-16T02:26:28;12.83;;;9.87;;
12122;SDS011;6125;59.628;17.852;2022-10-16T02:29:02;15.53;;;9.70;;
12122;SDS011;6125;59.628;17.852;2022-10-16T02:31:35;12.83;;;9.93;;
12122;SDS011;6125;59.628;17.852;2022-10-16T02:34:07;14.43;;;10.00;;
12122;SDS011;6125;59.628;17.852;2022-10-16T02:36:39;16.30;;;10.63;;
12122;SDS011;6125;59.628;17.852;2022-10-16T02:39:11;18.00;;;10.80;;
12122;SDS011;6125;59.628;17.852;2022-10-16T02:41:54;13.77;;;10.60;;
12122;SDS011;6125;59.628;17.852;2022-10-16T02:44:25;13.30;;;10.13;;
12122;SDS011;6125;59.628;17.852;2022-10-16T02:46:55;15.37;;;10.77;;
12122;SDS011;6125;59.628;17.852;2022-10-16T02:49:22;13.60;;;10.90;;
12122;SDS011;6125;59.628;17.852;2022-10-16T02:51:54;13.50;;;9.80;;
12122;SDS011;6125;59.628;17.852;2022-10-16T02:54:24;14.60;;;10.07;;
12122;SDS011;6125;59.628;17.852;2022-10-16T02:56:51;13.73;;;9.33;;
12122;SDS011;6125;59.628;17.852;2022-10-16T02:59:18;13.77;;;9.90;;
12122;SDS011;6125;59.628;17.852;2022-10-16T03:01:47;14.77;;;10.50;;
12122;SDS011;6125;59.628;17.852;2022-10-16T03:04:14;12.37;;;9.60;;
12122;SDS011;6125;59.628;17.852;2022-10-16T03:06:41;14.77;;;10.10;;
12122;SDS011;6125;59.628;17.852;2022-10-16T03:09:08;14.50;;;10.17;;
12122;SDS011;6125;59.628;17.852;2022-10-16T03:11:37;17.30;;;9.13;;
12122;SDS011;6125;59.628;17.852;2022-10-16T03:14:04;16.23;;;9.10;;
12122;SDS011;6125;59.628;17.852;2022-10-16T03:16:37;11.53;;;8.90;;
12122;SDS011;6125;59.628;17.852;2022-10-16T03:19:09;13.20;;;9.47;;
12122;SDS011;6125;59.628;17.852;2022-10-16T03:21:36;13.97;;;9.30;;
12122;SDS011;6125;59.628;17.852;2022-10-16T03:24:03;11.00;;;8.30;;
12122;SDS011;6125;59.628;17.852;2022-10-16T03:26:33;11.23;;;8.23;;
12122;SDS011;6125;59.628;17.852;2022-10-16T03:29:05;13.10;;;9.03;;
12122;SDS011;6125;59.628;17.852;2022-10-16T03:31:32;12.07;;;8.70;;
12122;SDS011;6125;59.628;17.852;2022-10-16T03:34:00;13.17;;;8.10;;
12122;SDS011;6125;59.628;17.852;2022-10-16T03:36:30;10.90;;;8.47;;
12122;SDS011;6125;59.628;17.852;2022-10-16T03:38:57;11.37;;;8.33;;
12122;SDS011;6125;59.628;17.852;2022-10-16T03:41:24;11.47;;;8.50;;
12122;SDS011;6125;59.628;17.852;2022-10-16T03:43:54;10.17;;;8.40;;
12122;SDS011;6125;59.628;17.852;2022-10-16T03:46:23;11.47;;;8.47;;
12122;SDS011;6125;59.628;17.852;2022-10-16T03:48:50;9.93;;;7.37;;
12122;SDS011;6125;59.628;17.852;2022-10-16T03:51:17;9.90;;;7.60;;
12122;SDS011;6125;59.628;17.852;2022-10-16T03:53:47;12.77;;;8.50;;
12122;SDS011;6125;59.628;17.852;2022-10-16T03:56:23;10.97;;;7.90;;
12122;SDS011;6125;59.628;17.852;2022-10-16T03:58:53;11.67;;;8.17;;
12122;SDS011;6125;59.628;17.852;2022-10-16T04:01:23;11.87;;;8.10;;
12122;SDS011;6125;59.628;17.852;2022-10-16T04:03:49;12.77;;;7.80;;
12122;SDS011;6125;59.628;17.852;2022-10-16T04:06:16;8.57;;;6.93;;
12122;SDS011;6125;59.628;17.852;2022-10-16T04:08:43;10.70;;;7.53;;
12122;SDS011;6125;59.628;17.852;2022-10-16T04:11:15;11.83;;;7.60;;
12122;SDS011;6125;59.628;17.852;2022-10-16T04:13:42;9.00;;;7.50;;
12122;SDS011;6125;59.628;17.852;2022-10-16T04:16:11;11.03;;;7.93;;
12122;SDS011;6125;59.628;17.852;2022-10-16T04:18:38;12.80;;;8.10;;
12122;SDS011;6125;59.628;17.852;2022-10-16T04:21:05;9.10;;;6.80;;
12122;SDS011;6125;59.628;17.852;2022-10-16T04:23:34;9.40;;;6.67;;
12122;SDS011;6125;59.628;17.852;2022-10-16T04:26:05;11.57;;;6.83;;
12122;SDS011;6125;59.628;17.852;2022-10-16T04:28:37;11.30;;;6.90;;
12122;SDS011;6125;59.628;17.852;2022-10-16T04:31:09;8.30;;;7.13;;
12122;SDS011;6125;59.628;17.852;2022-10-16T04:33:36;9.80;;;6.93;;
12122;SDS011;6125;59.628;17.852;2022-10-16T04:36:03;8.60;;;6.53;;
12122;SDS011;6125;59.628;17.852;2022-10-16T04:38:30;8.27;;;7.13;;
12122;SDS011;6125;59.628;17.852;2022-10-16T04:40:57;9.57;;;6.50;;
12122;SDS011;6125;59.628;17.852;2022-10-16T04:43:26;12.10;;;6.97;;
12122;SDS011;6125;59.628;17.852;2022-10-16T04:45:53;10.03;;;6.80;;
12122;SDS011;6125;59.628;17.852;2022-10-16T04:48:21;8.60;;;6.90;;
12122;SDS011;6125;59.628;17.852;2022-10-16T04:50:48;11.47;;;7.13;;
12122;SDS011;6125;59.628;17.852;2022-10-16T04:53:15;10.47;;;6.70;;
12122;SDS011;6125;59.628;17.852;2022-10-16T04:55:42;10.13;;;6.83;;
12122;SDS011;6125;59.628;17.852;2022-10-16T04:58:09;11.63;;;6.57;;
12122;SDS011;6125;59.628;17.852;2022-10-16T05:00:40;12.27;;;7.40;;
12122;SDS011;6125;59.628;17.852;2022-10-16T05:03:07;10.27;;;7.30;;
12122;SDS011;6125;59.628;17.852;2022-10-16T05:05:41;10.87;;;7.77;;
12122;SDS011;6125;59.628;17.852;2022-10-16T05:08:22;9.87;;;6.83;;
12122;SDS011;6125;59.628;17.852;2022-10-16T05:10:58;10.03;;;7.13;;
12122;SDS011;6125;59.628;17.852;2022-10-16T05:13:25;10.00;;;6.77;;
12122;SDS011;6125;59.628;17.852;2022-10-16T05:15:53;10.60;;;6.63;;
12122;SDS011;6125;59.628;17.852;2022-10-16T05:18:20;10.33;;;7.27;;
12122;SDS011;6125;59.628;17.852;2022-10-16T05:20:50;11.50;;;6.67;;
12122;SDS011;6125;59.628;17.852;2022-10-16T05:23:17;8.47;;;6.57;;
12122;SDS011;6125;59.628;17.852;2022-10-16T05:25:51;9.00;;;7.00;;
12122;SDS011;6125;59.628;17.852;2022-10-16T05:28:19;9.43;;;6.33;;
12122;SDS011;6125;59.628;17.852;2022-10-16T05:30:47;7.87;;;6.03;;
12122;SDS011;6125;59.628;17.852;2022-10-16T05:33:15;8.57;;;6.33;;
12122;SDS011;6125;59.628;17.852;2022-10-16T05:35:42;9.07;;;6.20;;
12122;SDS011;6125;59.628;17.852;2022-10-16T05:38:10;8.33;;;5.90;;
12122;SDS011;6125;59.628;17.852;2022-10-16T05:40:38;10.03;;;6.17;;
12122;SDS011;6125;59.628;17.852;2022-10-16T05:43:08;9.60;;;5.60;;
12122;SDS011;6125;59.628;17.852;2022-10-16T05:45:37;7.33;;;5.30;;
12122;SDS011;6125;59.628;17.852;2022-10-16T05:48:04;7.63;;;4.73;;
12122;SDS011;6125;59.628;17.852;2022-10-16T05:50:33;7.20;;;5.53;;
12122;SDS011;6125;59.628;17.852;2022-10-16T05:53:00;9.37;;;5.87;;
12122;SDS011;6125;59.628;17.852;2022-10-16T05:55:28;6.93;;;6.23;;
12122;SDS011;6125;59.628;17.852;2022-10-16T05:57:55;8.53;;;5.30;;
12122;SDS011;6125;59.628;17.852;2022-10-16T06:00:34;7.63;;;5.50;;
12122;SDS011;6125;59.628;17.852;2022-10-16T06:03:04;6.10;;;5.50;;
12122;SDS011;6125;59.628;17.852;2022-10-16T06:05:33;10.13;;;6.40;;
12122;SDS011;6125;59.628;17.852;2022-10-16T06:08:02;6.10;;;5.17;;
12122;SDS011;6125;59.628;17.852;2022-10-16T06:10:29;9.43;;;5.47;;
12122;SDS011;6125;59.628;17.852;2022-10-16T06:12:59;7.20;;;5.90;;
12122;SDS011;6125;59.628;17.852;2022-10-16T06:15:26;12.10;;;6.33;;
12122;SDS011;6125;59.628;17.852;2022-10-16T06:17:53;11.73;;;5.33;;
12122;SDS011;6125;59.628;17.852;2022-10-16T06:20:20;7.30;;;5.53;;
12122;SDS011;6125;59.628;17.852;2022-10-16T06:22:49;6.80;;;5.67;;
12122;SDS011;6125;59.628;17.852;2022-10-16T06:25:21;9.83;;;5.63;;
12122;SDS011;6125;59.628;17.852;2022-10-16T06:27:48;6.17;;;5.07;;
12122;SDS011;6125;59.628;17.852;2022-10-16T06:30:15;6.70;;;5.10;;
12122;SDS011;6125;59.628;17.852;2022-10-16T06:32:46;7.00;;;5.70;;
12122;SDS011;6125;59.628;17.852;2022-10-16T06:35:13;6.23;;;5.63;;
12122;SDS011;6125;59.628;17.852;2022-10-16T06:37:40;6.47;;;5.33;;
12122;SDS011;6125;59.628;17.852;2022-10-16T06:40:08;7.87;;;5.73;;
12122;SDS011;6125;59.628;17.852;2022-10-16T06:42:36;6.70;;;5.30;;
12122;SDS011;6125;59.628;17.852;2022-10-16T06:45:04;6.93;;;5.63;;
12122;SDS011;6125;59.628;17.852;2022-10-16T06:47:35;6.00;;;5.07;;
12122;SDS011;6125;59.628;17.852;2022-10-16T06:50:02;7.00;;;5.87;;
12122;SDS011;6125;59.628;17.852;2022-10-16T06:52:31;5.60;;;5.00;;
12122;SDS011;6125;59.628;17.852;2022-10-16T06:55:02;7.83;;;5.40;;
12122;SDS011;6125;59.628;17.852;2022-10-16T06:57:32;6.10;;;5.27;;
12122;SDS011;6125;59.628;17.852;2022-10-16T06:59:59;7.67;;;5.30;;
12122;SDS011;6125;59.628;17.852;2022-10-16T07:02:31;6.90;;;4.87;;
12122;SDS011;6125;59.628;17.852;2022-10-16T07:04:58;6.37;;;5.00;;
12122;SDS011;6125;59.628;17.852;2022-10-16T07:07:25;6.43;;;4.53;;
12122;SDS011;6125;59.628;17.852;2022-10-16T07:09:55;6.90;;;4.97;;
12122;SDS011;6125;59.628;17.852;2022-10-16T07:12:24;6.57;;;5.03;;
12122;SDS011;6125;59.628;17.852;2022-10-16T07:14:53;6.20;;;5.37;;
12122;SDS011;6125;59.628;17.852;2022-10-16T07:17:22;5.87;;;4.93;;
12122;SDS011;6125;59.628;17.852;2022-10-16T07:19:50;5.90;;;4.93;;
12122;SDS011;6125;59.628;17.852;2022-10-16T07:22:20;5.67;;;4.77;;
12122;SDS011;6125;59.628;17.852;2022-10-16T07:24:47;6.57;;;5.00;;
12122;SDS011;6125;59.628;17.852;2022-10-16T07:27:15;9.00;;;5.13;;
12122;SDS011;6125;59.628;17.852;2022-10-16T07:29:49;7.40;;;4.70;;
12122;SDS011;6125;59.628;17.852;2022-10-16T07:32:21;5.73;;;5.17;;
12122;SDS011;6125;59.628;17.852;2022-10-16T07:34:50;8.37;;;5.57;;
12122;SDS011;6125;59.628;17.852;2022-10-16T07:37:17;6.47;;;5.40;;
12122;SDS011;6125;59.628;17.852;2022-10-16T07:39:44;6.27;;;5.47;;
12122;SDS011;6125;59.628;17.852;2022-10-16T07:42:11;5.83;;;5.23;;
12122;SDS011;6125;59.628;17.852;2022-10-16T07:44:41;7.57;;;5.20;;
12122;SDS011;6125;59.628;17.852;2022-10-16T07:47:08;6.97;;;4.87;;
12122;SDS011;6125;59.628;17.852;2022-10-16T07:49:37;6.10;;;5.03;;
12122;SDS011;6125;59.628;17.852;2022-10-16T07:52:11;6.63;;;4.80;;
12122;SDS011;6125;59.628;17.852;2022-10-16T07:54:38;5.87;;;5.27;;
12122;SDS011;6125;59.628;17.852;2022-10-16T07:57:05;6.40;;;5.57;;
12122;SDS011;6125;59.628;17.852;2022-10-16T07:59:32;6.20;;;5.47;;
12122;SDS011;6125;59.628;17.852;2022-10-16T08:02:01;6.77;;;5.47;;
12122;SDS011;6125;59.628;17.852;2022-10-16T08:04:28;7.63;;;5.27;;
12122;SDS011;6125;59.628;17.852;2022-10-16T08:06:58;6.03;;;4.93;;
12122;SDS011;6125;59.628;17.852;2022-10-16T08:09:25;5.93;;;4.93;;
12122;SDS011;6125;59.628;17.852;2022-10-16T08:11:52;6.50;;;4.90;;
12122;SDS011;6125;59.628;17.852;2022-10-16T08:14:19;7.10;;;5.00;;
12122;SDS011;6125;59.628;17.852;2022-10-16T08:16:46;6.47;;;4.53;;
12122;SDS011;6125;59.628;17.852;2022-10-16T08:19:13;7.93;;;5.20;;
12122;SDS011;6125;59.628;17.852;2022-10-16T08:21:40;6.87;;;5.03;;
12122;SDS011;6125;59.628;17.852;2022-10-16T08:24:16;5.83;;;4.73;;
12122;SDS011;6125;59.628;17.852;2022-10-16T08:26:43;6.83;;;4.67;;
12122;SDS011;6125;59.628;17.852;2022-10-16T08:29:13;5.00;;;3.77;;
12122;SDS011;6125;59.628;17.852;2022-10-16T08:31:40;4.80;;;4.07;;
12122;SDS011;6125;59.628;17.852;2022-10-16T08:34:07;5.50;;;4.33;;
12122;SDS011;6125;59.628;17.852;2022-10-16T08:36:34;6.27;;;4.40;;
12122;SDS011;6125;59.628;17.852;2022-10-16T08:39:01;6.40;;;4.07;;
12122;SDS011;6125;59.628;17.852;2022-10-16T08:41:40;5.00;;;3.70;;
12122;SDS011;6125;59.628;17.852;2022-10-16T08:44:30;4.90;;;3.80;;
12122;SDS011;6125;59.628;17.852;2022-10-16T08:47:17;4.87;;;3.70;;
12122;SDS011;6125;59.628;17.852;2022-10-16T08:49:50;6.20;;;3.33;;
12122;SDS011;6125;59.628;17.852;2022-10-16T08:52:25;3.83;;;3.43;;
12122;SDS011;6125;59.628;17.852;2022-10-16T08:54:56;3.63;;;3.33;;
12122;SDS011;6125;59.628;17.852;2022-10-16T08:57:25;5.90;;;3.80;;
12122;SDS011;6125;59.628;17.852;2022-10-16T08:59:57;3.77;;;3.00;;
12122;SDS011;6125;59.628;17.852;2022-10-16T09:02:28;3.60;;;3.30;;
12122;SDS011;6125;59.628;17.852;2022-10-16T09:05:00;5.67;;;3.23;;
12122;SDS011;6125;59.628;17.852;2022-10-16T09:07:36;5.83;;;3.57;;
12122;SDS011;6125;59.628;17.852;2022-10-16T09:10:15;7.23;;;3.67;;
12122;SDS011;6125;59.628;17.852;2022-10-16T09:12:53;6.60;;;3.20;;
12122;SDS011;6125;59.628;17.852;2022-10-16T09:15:29;11.27;;;3.43;;
12122;SDS011;6125;59.628;17.852;2022-10-16T09:18:05;8.40;;;4.00;;
12122;SDS011;6125;59.628;17.852;2022-10-16T09:20:42;4.23;;;3.10;;
12122;SDS011;6125;59.628;17.852;2022-10-16T09:23:17;5.77;;;2.90;;
12122;SDS011;6125;59.628;17.852;2022-10-16T09:25:46;3.33;;;3.00;;
12122;SDS011;6125;59.628;17.852;2022-10-16T09:28:19;4.23;;;3.17;;
12122;SDS011;6125;59.628;17.852;2022-10-16T09:30:46;6.70;;;2.83;;
12122;SDS011;6125;59.628;17.852;2022-10-16T09:33:15;4.70;;;3.00;;
12122;SDS011;6125;59.628;17.852;2022-10-16T09:35:44;6.37;;;3.00;;
12122;SDS011;6125;59.628;17.852;2022-10-16T09:38:25;5.47;;;2.60;;
12122;SDS011;6125;59.628;17.852;2022-10-16T09:40:59;4.63;;;2.63;;
12122;SDS011;6125;59.628;17.852;2022-10-16T09:43:31;6.33;;;2.53;;
12122;SDS011;6125;59.628;17.852;2022-10-16T09:46:02;4.87;;;2.20;;
12122;SDS011;6125;59.628;17.852;2022-10-16T09:48:35;6.00;;;2.37;;
12122;SDS011;6125;59.628;17.852;2022-10-16T09:51:06;4.70;;;2.47;;
12122;SDS011;6125;59.628;17.852;2022-10-16T09:53:57;2.73;;;2.30;;
12122;SDS011;6125;59.628;17.852;2022-10-16T09:56:29;9.20;;;2.40;;
12122;SDS011;6125;59.628;17.852;2022-10-16T09:59:01;6.07;;;2.53;;
12122;SDS011;6125;59.628;17.852;2022-10-16T10:01:35;6.40;;;2.70;;
12122;SDS011;6125;59.628;17.852;2022-10-16T10:04:04;7.67;;;2.27;;
12122;SDS011;6125;59.628;17.852;2022-10-16T10:06:33;3.57;;;2.40;;
12122;SDS011;6125;59.628;17.852;2022-10-16T10:09:06;5.00;;;2.00;;
12122;SDS011;6125;59.628;17.852;2022-10-16T10:11:50;5.07;;;2.37;;
12122;SDS011;6125;59.628;17.852;2022-10-16T10:14:28;3.23;;;2.40;;
12122;SDS011;6125;59.628;17.852;2022-10-16T10:17:02;3.27;;;2.17;;
12122;SDS011;6125;59.628;17.852;2022-10-16T10:19:40;5.70;;;2.20;;
12122;SDS011;6125;59.628;17.852;2022-10-16T10:22:16;6.03;;;1.90;;
12122;SDS011;6125;59.628;17.852;2022-10-16T10:24:54;7.50;;;2.07;;
12122;SDS011;6125;59.628;17.852;2022-10-16T10:27:50;7.33;;;2.10;;
12122;SDS011;6125;59.628;17.852;2022-10-16T10:30:29;9.23;;;1.90;;
12122;SDS011;6125;59.628;17.852;2022-10-16T10:33:13;5.97;;;2.80;;
12122;SDS011;6125;59.628;17.852;2022-10-16T10:35:51;6.10;;;1.90;;
12122;SDS011;6125;59.628;17.852;2022-10-16T10:38:28;5.53;;;2.20;;
12122;SDS011;6125;59.628;17.852;2022-10-16T10:41:05;7.60;;;2.33;;
12122;SDS011;6125;59.628;17.852;2022-10-16T10:43:54;4.50;;;2.10;;
12122;SDS011;6125;59.628;17.852;2022-10-16T10:46:31;4.13;;;1.93;;
12122;SDS011;6125;59.628;17.852;2022-10-16T10:51:59;6.67;;;2.30;;
12122;SDS011;6125;59.628;17.852;2022-10-16T10:54:32;6.40;;;2.27;;
12122;SDS011;6125;59.628;17.852;2022-10-16T10:57:09;3.33;;;1.93;;
12122;SDS011;6125;59.628;17.852;2022-10-16T10:59:55;5.20;;;2.13;;
12122;SDS011;6125;59.628;17.852;2022-10-16T11:02:33;5.87;;;2.00;;
12122;SDS011;6125;59.628;17.852;2022-10-16T11:08:07;6.97;;;2.10;;
12122;SDS011;6125;59.628;17.852;2022-10-16T11:10:45;3.50;;;2.20;;
12122;SDS011;6125;59.628;17.852;2022-10-16T11:13:23;4.67;;;2.30;;
12122;SDS011;6125;59.628;17.852;2022-10-16T11:15:58;4.80;;;1.83;;
12122;SDS011;6125;59.628;17.852;2022-10-16T11:18:32;4.03;;;2.10;;
12122;SDS011;6125;59.628;17.852;2022-10-16T11:21:12;6.87;;;2.43;;
12122;SDS011;6125;59.628;17.852;2022-10-16T11:23:42;3.77;;;2.13;;
12122;SDS011;6125;59.628;17.852;2022-10-16T11:26:18;5.87;;;2.30;;
12122;SDS011;6125;59.628;17.852;2022-10-16T11:28:49;4.70;;;2.00;;
12122;SDS011;6125;59.628;17.852;2022-10-16T11:31:22;4.00;;;2.13;;
12122;SDS011;6125;59.628;17.852;2022-10-16T11:33:59;3.97;;;2.20;;
12122;SDS011;6125;59.628;17.852;2022-10-16T11:36:32;4.20;;;2.10;;
12122;SDS011;6125;59.628;17.852;2022-10-16T11:39:10;5.20;;;2.20;;
12122;SDS011;6125;59.628;17.852;2022-10-16T11:41:47;4.40;;;1.97;;
12122;SDS011;6125;59.628;17.852;2022-10-16T11:44:27;7.73;;;2.47;;
12122;SDS011;6125;59.628;17.852;2022-10-16T11:47:09;9.30;;;2.33;;
12122;SDS011;6125;59.628;17.852;2022-10-16T11:49:51;11.13;;;2.63;;
12122;SDS011;6125;59.628;17.852;2022-10-16T11:52:25;4.27;;;1.90;;
12122;SDS011;6125;59.628;17.852;2022-10-16T11:55:05;4.70;;;2.20;;
12122;SDS011;6125;59.628;17.852;2022-10-16T11:57:42;5.17;;;2.30;;
12122;SDS011;6125;59.628;17.852;2022-10-16T12:00:19;5.77;;;2.30;;
12122;SDS011;6125;59.628;17.852;2022-10-16T12:02:52;7.20;;;2.80;;
12122;SDS011;6125;59.628;17.852;2022-10-16T12:05:28;5.13;;;2.37;;
12122;SDS011;6125;59.628;17.852;2022-10-16T12:08:05;3.77;;;2.20;;
12122;SDS011;6125;59.628;17.852;2022-10-16T12:10:36;6.60;;;2.60;;
12122;SDS011;6125;59.628;17.852;2022-10-16T12:13:04;7.63;;;5.50;;
12122;SDS011;6125;59.628;17.852;2022-10-16T12:15:33;6.93;;;3.13;;
12122;SDS011;6125;59.628;17.852;2022-10-16T12:18:00;4.83;;;2.40;;
12122;SDS011;6125;59.628;17.852;2022-10-16T12:20:31;7.30;;;2.57;;
12122;SDS011;6125;59.628;17.852;2022-10-16T12:23:03;4.57;;;2.17;;
12122;SDS011;6125;59.628;17.852;2022-10-16T12:25:33;5.70;;;2.60;;
12122;SDS011;6125;59.628;17.852;2022-10-16T12:28:04;5.20;;;2.70;;
12122;SDS011;6125;59.628;17.852;2022-10-16T12:30:33;7.30;;;2.63;;
12122;SDS011;6125;59.628;17.852;2022-10-16T12:33:02;5.43;;;2.57;;
12122;SDS011;6125;59.628;17.852;2022-10-16T12:35:35;4.67;;;2.20;;
12122;SDS011;6125;59.628;17.852;2022-10-16T12:38:15;3.97;;;2.20;;
12122;SDS011;6125;59.628;17.852;2022-10-16T12:40:45;3.17;;;2.33;;
12122;SDS011;6125;59.628;17.852;2022-10-16T12:43:24;6.03;;;2.73;;
12122;SDS011;6125;59.628;17.852;2022-10-16T12:46:03;12.23;;;6.03;;
12122;SDS011;6125;59.628;17.852;2022-10-16T12:48:48;6.00;;;3.40;;
12122;SDS011;6125;59.628;17.852;2022-10-16T12:51:24;7.80;;;2.70;;
12122;SDS011;6125;59.628;17.852;2022-10-16T12:54:03;10.47;;;5.23;;
12122;SDS011;6125;59.628;17.852;2022-10-16T12:56:45;9.13;;;3.87;;
12122;SDS011;6125;59.628;17.852;2022-10-16T12:59:28;5.00;;;2.67;;
12122;SDS011;6125;59.628;17.852;2022-10-16T13:02:14;5.17;;;2.63;;
12122;SDS011;6125;59.628;17.852;2022-10-16T13:05:03;5.33;;;2.63;;
12122;SDS011;6125;59.628;17.852;2022-10-16T13:07:47;6.13;;;2.40;;
12122;SDS011;6125;59.628;17.852;2022-10-16T13:10:23;7.60;;;3.03;;
12122;SDS011;6125;59.628;17.852;2022-10-16T13:13:07;8.30;;;3.10;;
12122;SDS011;6125;59.628;17.852;2022-10-16T13:15:56;6.40;;;3.43;;
12122;SDS011;6125;59.628;17.852;2022-10-16T13:18:34;7.33;;;3.07;;
12122;SDS011;6125;59.628;17.852;2022-10-16T13:21:18;4.97;;;3.23;;
12122;SDS011;6125;59.628;17.852;2022-10-16T13:23:57;4.97;;;2.50;;
12122;SDS011;6125;59.628;17.852;2022-10-16T13:26:31;10.00;;;3.10;;
12122;SDS011;6125;59.628;17.852;2022-10-16T13:29:09;6.40;;;2.10;;
12122;SDS011;6125;59.628;17.852;2022-10-16T13:31:38;3.17;;;2.00;;
12122;SDS011;6125;59.628;17.852;2022-10-16T13:34:05;3.00;;;1.73;;
12122;SDS011;6125;59.628;17.852;2022-10-16T13:36:43;3.63;;;2.27;;
12122;SDS011;6125;59.628;17.852;2022-10-16T13:39:13;4.97;;;2.97;;
12122;SDS011;6125;59.628;17.852;2022-10-16T13:41:46;2.10;;;1.50;;
12122;SDS011;6125;59.628;17.852;2022-10-16T13:44:27;4.60;;;1.90;;
12122;SDS011;6125;59.628;17.852;2022-10-16T13:46:59;8.73;;;6.07;;
12122;SDS011;6125;59.628;17.852;2022-10-16T13:49:29;3.07;;;2.20;;
12122;SDS011;6125;59.628;17.852;2022-10-16T13:51:59;3.47;;;2.20;;
12122;SDS011;6125;59.628;17.852;2022-10-16T13:54:27;3.20;;;1.77;;
12122;SDS011;6125;59.628;17.852;2022-10-16T13:57:11;2.80;;;1.20;;
12122;SDS011;6125;59.628;17.852;2022-10-16T13:59:39;2.63;;;1.40;;
12122;SDS011;6125;59.628;17.852;2022-10-16T14:02:15;2.20;;;1.60;;
12122;SDS011;6125;59.628;17.852;2022-10-16T14:04:49;2.87;;;1.43;;
12122;SDS011;6125;59.628;17.852;2022-10-16T14:07:23;2.77;;;1.40;;
12122;SDS011;6125;59.628;17.852;2022-10-16T14:09:53;3.63;;;1.50;;
12122;SDS011;6125;59.628;17.852;2022-10-16T14:12:21;2.97;;;1.50;;
12122;SDS011;6125;59.628;17.852;2022-10-16T14:14:49;1.60;;;1.27;;
12122;SDS011;6125;59.628;17.852;2022-10-16T14:17:22;4.27;;;1.60;;
12122;SDS011;6125;59.628;17.852;2022-10-16T14:19:57;5.70;;;1.60;;
12122;SDS011;6125;59.628;17.852;2022-10-16T14:22:28;6.37;;;2.00;;
12122;SDS011;6125;59.628;17.852;2022-10-16T14:24:58;4.73;;;2.10;;
12122;SDS011;6125;59.628;17.852;2022-10-16T14:27:29;3.43;;;1.60;;
12122;SDS011;6125;59.628;17.852;2022-10-16T14:30:05;3.07;;;1.90;;
12122;SDS011;6125;59.628;17.852;2022-10-16T14:32:54;3.40;;;1.73;;
12122;SDS011;6125;59.628;17.852;2022-10-16T14:35:27;5.57;;;1.90;;
12122;SDS011;6125;59.628;17.852;2022-10-16T14:37:56;8.00;;;3.40;;
12122;SDS011;6125;59.628;17.852;2022-10-16T14:40:26;6.77;;;2.97;;
12122;SDS011;6125;59.628;17.852;2022-10-16T14:42:54;5.13;;;2.10;;
12122;SDS011;6125;59.628;17.852;2022-10-16T14:45:24;3.63;;;1.70;;
12122;SDS011;6125;59.628;17.852;2022-10-16T14:47:55;3.47;;;2.00;;
12122;SDS011;6125;59.628;17.852;2022-10-16T14:53:16;5.93;;;2.10;;
12122;SDS011;6125;59.628;17.852;2022-10-16T14:55:47;5.10;;;2.10;;
12122;SDS011;6125;59.628;17.852;2022-10-16T14:58:15;3.77;;;2.17;;
12122;SDS011;6125;59.628;17.852;2022-10-16T15:00:44;8.20;;;2.63;;
12122;SDS011;6125;59.628;17.852;2022-10-16T15:03:16;3.90;;;2.70;;
12122;SDS011;6125;59.628;17.852;2022-10-16T15:05:43;3.03;;;2.00;;
12122;SDS011;6125;59.628;17.852;2022-10-16T15:08:10;6.27;;;2.17;;
12122;SDS011;6125;59.628;17.852;2022-10-16T15:10:38;9.90;;;2.07;;
12122;SDS011;6125;59.628;17.852;2022-10-16T15:13:12;3.60;;;1.63;;
12122;SDS011;6125;59.628;17.852;2022-10-16T15:15:42;3.20;;;1.73;;
12122;SDS011;6125;59.628;17.852;2022-10-16T15:18:12;2.73;;;1.60;;
12122;SDS011;6125;59.628;17.852;2022-10-16T15:20:44;4.00;;;1.63;;